Young Endeavour — VMGW — position and weather

sailwx.info

Track history (hours):
 
Tides and Currents Weather Stations Pressure Air Temp Water Temp Dewpoint Dewpoint Depression Visibility Wind Speed Wind Dir Waves Ship Positions

Young Endeavour (Australia)

Ship's website: http://www.youngendeavour.gov.au/

Last reported at 2017-Apr-15 03:36 UTC. Time now 2017-May-28 08:27 UTC.
Position S 33°34' E 151°19'.
Warning: this ship's position is 43 days out of date.

Length 44 m; beam 7.8 m; draft 4 m.

Type: Sailing vessel. MMSI: 503071000.

Date/timePositionNaut miles runAvg speedWind from/ knotsBaromVisibWave heightAir tempDewpointWater temp
2017-Apr-15 03:36S 33°34' E 151°19'0 4.4
2017-Apr-15 03:30S 33°34' E 151°19'42 3.8
2017-Apr-14 16:32S 33°05' E 151°55'1 4.4
2017-Apr-14 16:17S 33°04' E 151°56'2 4.5
2017-Apr-14 15:57S 33°03' E 151°57'2 4.5
2017-Apr-14 15:30S 33°01' E 151°58'2 4.6
2017-Apr-14 15:00S 32°59' E 152°00'2 4.5
2017-Apr-14 14:30S 32°57' E 152°02'4 4.4
2017-Apr-14 13:30S 32°54' E 152°05'2 4.5
2017-Apr-14 13:00S 32°52' E 152°07'2 4.8
2017-Apr-14 12:30S 32°50' E 152°09'3 6.1
2017-Apr-14 12:00S 32°48' E 152°11'3 6.6
2017-Apr-14 11:31S 32°46' E 152°14'3 6.2
2017-Apr-14 11:00S 32°43' E 152°16'3 6.0
2017-Apr-14 10:30S 32°41' E 152°18'3 6.0
2017-Apr-14 10:00S 32°39' E 152°20'2 4.7
2017-Apr-14 09:30S 32°36' E 152°20'1 2.3
2017-Apr-14 08:59S 32°37' E 152°19'0 0.0
2017-Apr-14 08:11S 32°36' E 152°19'0 0.0
2017-Apr-14 07:59S 32°36' E 152°19'0 0.0
2017-Apr-14 07:23S 32°36' E 152°19'0 0.0
2017-Apr-14 06:59S 32°36' E 152°19'0 0.0
2017-Apr-14 06:29S 32°36' E 152°19'0 0.1
2017-Apr-14 05:59S 32°36' E 152°19'0 0.0
2017-Apr-14 05:29S 32°36' E 152°19'0 0.0
2017-Apr-14 04:59S 32°36' E 152°19'0 0.0
2017-Apr-14 04:29S 32°36' E 152°19'0 0.0
2017-Apr-14 03:59S 32°36' E 152°19'0 0.0
2017-Apr-14 03:23S 32°36' E 152°19'0 0.0
2017-Apr-14 02:56S 32°36' E 152°19'0 0.0
2017-Apr-14 02:29S 32°37' E 152°19'0 0.0
2017-Apr-14 02:00S 32°36' E 152°19'1 2.4
2017-Apr-14 01:30S 32°37' E 152°18'1 2.1
2017-Apr-14 01:00S 32°38' E 152°17'0 0.5
2017-Apr-14 00:30S 32°38' E 152°17'3 5.7
2017-Apr-14 00:00S 32°41' E 152°15'3 5.9
2017-Apr-13 23:30S 32°42' E 152°12'3 5.5
2017-Apr-13 23:00S 32°43' E 152°09'0 0.7
2017-Apr-13 22:29S 32°43' E 152°09'0 0.0
2017-Apr-13 21:59S 32°43' E 152°09'0 0.1
2017-Apr-13 21:29S 32°43' E 152°09'0 0.1
2017-Apr-13 20:59S 32°43' E 152°09'0 0.0
2017-Apr-13 20:29S 32°43' E 152°09'0 0.0
2017-Apr-13 19:59S 32°43' E 152°09'0 0.1
2017-Apr-13 19:30S 32°43' E 152°09'0 0.0
2017-Apr-13 19:01S 32°43' E 152°09'0 0.0
2017-Apr-13 18:30S 32°43' E 152°09'0 0.0
2017-Apr-13 18:01S 32°43' E 152°09'0 0.0
2017-Apr-13 17:28S 32°43' E 152°09'0 0.0
2017-Apr-13 17:00S 32°43' E 152°09'0 0.0
2017-Apr-13 16:30S 32°43' E 152°09'0 0.0
2017-Apr-13 16:01S 32°43' E 152°09'0 0.0
2017-Apr-13 15:26S 32°43' E 152°09'0 0.0
2017-Apr-13 15:00S 32°43' E 152°09'0 0.0
2017-Apr-13 14:00S 32°43' E 152°09'0 0.1
2017-Apr-13 13:25S 32°43' E 152°09'0 0.0
2017-Apr-13 12:52S 32°43' E 152°09'0 0.0
2017-Apr-13 12:30S 32°43' E 152°09'0 0.0
2017-Apr-13 12:00S 32°43' E 152°09'0 0.0
2017-Apr-13 11:30S 32°43' E 152°09'0 0.0
2017-Apr-13 11:00S 32°43' E 152°09'0 0.1
2017-Apr-13 10:30S 32°43' E 152°09'0 0.0
2017-Apr-13 10:00S 32°43' E 152°09'0 0.0
2017-Apr-13 09:30S 32°43' E 152°09'0 0.0
2017-Apr-13 09:00S 32°43' E 152°09'0 0.1
2017-Apr-13 08:30S 32°43' E 152°09'0 0.0
2017-Apr-13 08:00S 32°43' E 152°09'0 0.0
2017-Apr-13 07:24S 32°43' E 152°09'0 0.0
2017-Apr-13 07:00S 32°43' E 152°09'0 0.0
2017-Apr-13 06:30S 32°43' E 152°09'0 0.1
2017-Apr-13 06:00S 32°43' E 152°09'0 0.0
2017-Apr-13 05:27S 32°43' E 152°09'0 0.0
2017-Apr-13 05:00S 32°43' E 152°09'0 0.0
2017-Apr-13 04:30S 32°43' E 152°09'0 0.0
2017-Apr-13 04:00S 32°43' E 152°09'0 0.0
2017-Apr-13 03:30S 32°43' E 152°09'0 0.0
2017-Apr-13 03:00S 32°43' E 152°09'0 0.0
2017-Apr-13 02:30S 32°43' E 152°09'0 0.0
2017-Apr-13 02:00S 32°43' E 152°09'0 0.0
2017-Apr-13 01:30S 32°43' E 152°09'0 0.0
2017-Apr-13 01:00S 32°43' E 152°09'0 0.0
2017-Apr-13 00:30S 32°43' E 152°09'0 0.1
2017-Apr-13 00:00S 32°43' E 152°09'0 0.0
2017-Apr-12 23:30S 32°43' E 152°09'0 0.0
2017-Apr-12 23:00S 32°43' E 152°09'0 0.1
2017-Apr-12 22:30S 32°43' E 152°09'0 0.1
2017-Apr-12 22:01S 32°43' E 152°09'3 5.5
2017-Apr-12 21:31S 32°43' E 152°12'2 4.3
2017-Apr-12 21:00S 32°44' E 152°13'2 4.2
2017-Apr-12 20:31S 32°46' E 152°12'2 4.6
2017-Apr-12 20:00S 32°48' E 152°11'2 4.4
2017-Apr-12 19:30S 32°50' E 152°09'2 4.3
2017-Apr-12 19:01S 32°52' E 152°08'3 6.1
2017-Apr-12 18:31S 32°54' E 152°06'3 6.0
2017-Apr-12 18:00S 32°57' E 152°04'3 6.0
2017-Apr-12 17:30S 32°59' E 152°01'50 4.5
2017-Apr-12 06:21S 33°34' E 151°19'1 0.0
2017-Apr-10 20:52S 33°34' E 151°19'  
Track history (hours):
 
Tides and Currents Weather Stations Pressure Air Temp Water Temp Dewpoint Dewpoint Depression Visibility Wind Speed Wind Dir Waves Ship Positions

Young Endeavour (Australia)

Ship's website: http://www.youngendeavour.gov.au/

Last reported at 2017-Apr-15 03:36 UTC. Time now 2017-May-28 08:27 UTC.
Position S 33°34' E 151°19'.
Warning: this ship's position is 43 days out of date.

Length 44 m; beam 7.8 m; draft 4 m.

Type: Sailing vessel. MMSI: 503071000.

Date/timePositionNaut miles runAvg speedWind from/ knotsBaromVisibWave heightAir tempDewpointWater temp
2017-Apr-15 03:36S 33°34' E 151°19'0 4.4
2017-Apr-15 03:30S 33°34' E 151°19'42 3.8
2017-Apr-14 16:32S 33°05' E 151°55'1 4.4
2017-Apr-14 16:17S 33°04' E 151°56'2 4.5
2017-Apr-14 15:57S 33°03' E 151°57'2 4.5
2017-Apr-14 15:30S 33°01' E 151°58'2 4.6
2017-Apr-14 15:00S 32°59' E 152°00'2 4.5
2017-Apr-14 14:30S 32°57' E 152°02'4 4.4
2017-Apr-14 13:30S 32°54' E 152°05'2 4.5
2017-Apr-14 13:00S 32°52' E 152°07'2 4.8
2017-Apr-14 12:30S 32°50' E 152°09'3 6.1
2017-Apr-14 12:00S 32°48' E 152°11'3 6.6
2017-Apr-14 11:31S 32°46' E 152°14'3 6.2
2017-Apr-14 11:00S 32°43' E 152°16'3 6.0
2017-Apr-14 10:30S 32°41' E 152°18'3 6.0
2017-Apr-14 10:00S 32°39' E 152°20'2 4.7
2017-Apr-14 09:30S 32°36' E 152°20'1 2.3
2017-Apr-14 08:59S 32°37' E 152°19'0 0.0
2017-Apr-14 08:11S 32°36' E 152°19'0 0.0
2017-Apr-14 07:59S 32°36' E 152°19'0 0.0
2017-Apr-14 07:23S 32°36' E 152°19'0 0.0
2017-Apr-14 06:59S 32°36' E 152°19'0 0.0
2017-Apr-14 06:29S 32°36' E 152°19'0 0.1
2017-Apr-14 05:59S 32°36' E 152°19'0 0.0
2017-Apr-14 05:29S 32°36' E 152°19'0 0.0
2017-Apr-14 04:59S 32°36' E 152°19'0 0.0
2017-Apr-14 04:29S 32°36' E 152°19'0 0.0
2017-Apr-14 03:59S 32°36' E 152°19'0 0.0
2017-Apr-14 03:23S 32°36' E 152°19'0 0.0
2017-Apr-14 02:56S 32°36' E 152°19'0 0.0
2017-Apr-14 02:29S 32°37' E 152°19'0 0.0
2017-Apr-14 02:00S 32°36' E 152°19'1 2.4
2017-Apr-14 01:30S 32°37' E 152°18'1 2.1
2017-Apr-14 01:00S 32°38' E 152°17'0 0.5
2017-Apr-14 00:30S 32°38' E 152°17'3 5.7
2017-Apr-14 00:00S 32°41' E 152°15'3 5.9
2017-Apr-13 23:30S 32°42' E 152°12'3 5.5
2017-Apr-13 23:00S 32°43' E 152°09'0 0.7
2017-Apr-13 22:29S 32°43' E 152°09'0 0.0
2017-Apr-13 21:59S 32°43' E 152°09'0 0.1
2017-Apr-13 21:29S 32°43' E 152°09'0 0.1
2017-Apr-13 20:59S 32°43' E 152°09'0 0.0
2017-Apr-13 20:29S 32°43' E 152°09'0 0.0
2017-Apr-13 19:59S 32°43' E 152°09'0 0.1
2017-Apr-13 19:30S 32°43' E 152°09'0 0.0
2017-Apr-13 19:01S 32°43' E 152°09'0 0.0
2017-Apr-13 18:30S 32°43' E 152°09'0 0.0
2017-Apr-13 18:01S 32°43' E 152°09'0 0.0
2017-Apr-13 17:28S 32°43' E 152°09'0 0.0
2017-Apr-13 17:00S 32°43' E 152°09'0 0.0
2017-Apr-13 16:30S 32°43' E 152°09'0 0.0
2017-Apr-13 16:01S 32°43' E 152°09'0 0.0
2017-Apr-13 15:26S 32°43' E 152°09'0 0.0
2017-Apr-13 15:00S 32°43' E 152°09'0 0.0
2017-Apr-13 14:00S 32°43' E 152°09'0 0.1
2017-Apr-13 13:25S 32°43' E 152°09'0 0.0
2017-Apr-13 12:52S 32°43' E 152°09'0 0.0
2017-Apr-13 12:30S 32°43' E 152°09'0 0.0
2017-Apr-13 12:00S 32°43' E 152°09'0 0.0
2017-Apr-13 11:30S 32°43' E 152°09'0 0.0
2017-Apr-13 11:00S 32°43' E 152°09'0 0.1
2017-Apr-13 10:30S 32°43' E 152°09'0 0.0
2017-Apr-13 10:00S 32°43' E 152°09'0 0.0
2017-Apr-13 09:30S 32°43' E 152°09'0 0.0
2017-Apr-13 09:00S 32°43' E 152°09'0 0.1
2017-Apr-13 08:30S 32°43' E 152°09'0 0.0
2017-Apr-13 08:00S 32°43' E 152°09'0 0.0
2017-Apr-13 07:24S 32°43' E 152°09'0 0.0
2017-Apr-13 07:00S 32°43' E 152°09'0 0.0
2017-Apr-13 06:30S 32°43' E 152°09'0 0.1
2017-Apr-13 06:00S 32°43' E 152°09'0 0.0
2017-Apr-13 05:27S 32°43' E 152°09'0 0.0
2017-Apr-13 05:00S 32°43' E 152°09'0 0.0
2017-Apr-13 04:30S 32°43' E 152°09'0 0.0
2017-Apr-13 04:00S 32°43' E 152°09'0 0.0
2017-Apr-13 03:30S 32°43' E 152°09'0 0.0
2017-Apr-13 03:00S 32°43' E 152°09'0 0.0
2017-Apr-13 02:30S 32°43' E 152°09'0 0.0
2017-Apr-13 02:00S 32°43' E 152°09'0 0.0
2017-Apr-13 01:30S 32°43' E 152°09'0 0.0
2017-Apr-13 01:00S 32°43' E 152°09'0 0.0
2017-Apr-13 00:30S 32°43' E 152°09'0 0.1
2017-Apr-13 00:00S 32°43' E 152°09'0 0.0
2017-Apr-12 23:30S 32°43' E 152°09'0 0.0
2017-Apr-12 23:00S 32°43' E 152°09'0 0.1
2017-Apr-12 22:30S 32°43' E 152°09'0 0.1
2017-Apr-12 22:01S 32°43' E 152°09'3 5.5
2017-Apr-12 21:31S 32°43' E 152°12'2 4.3
2017-Apr-12 21:00S 32°44' E 152°13'2 4.2
2017-Apr-12 20:31S 32°46' E 152°12'2 4.6
2017-Apr-12 20:00S 32°48' E 152°11'2 4.4
2017-Apr-12 19:30S 32°50' E 152°09'2 4.3
2017-Apr-12 19:01S 32°52' E 152°08'3 6.1
2017-Apr-12 18:31S 32°54' E 152°06'3 6.0
2017-Apr-12 18:00S 32°57' E 152°04'3 6.0
2017-Apr-12 17:30S 32°59' E 152°01'50 4.5
2017-Apr-12 06:21S 33°34' E 151°19'1 0.0
2017-Apr-10 20:52S 33°34' E 151°19'  

Dump ship's entire track history